createdAt,value
2022-08-16T00:24:05.127Z,19
2022-08-16T00:52:53.860Z,20
2022-08-16T01:21:47.246Z,19
2022-08-16T01:51:08.051Z,19
2022-08-16T02:19:58.204Z,19
2022-08-16T02:48:38.445Z,20
2022-08-16T03:17:34.593Z,20
2022-08-16T03:46:56.258Z,20
2022-08-16T04:15:45.920Z,17
2022-08-16T04:44:53.295Z,22
2022-08-16T05:13:40.108Z,20
2022-08-16T05:42:12.861Z,22
2022-08-16T06:11:11.393Z,22
2022-08-16T06:39:54.467Z,22
2022-08-16T07:08:50.452Z,20
2022-08-16T07:38:19.663Z,20
2022-08-16T08:07:10.454Z,19
2022-08-16T08:36:37.258Z,19
2022-08-16T09:05:51.975Z,19
2022-08-16T09:34:52.826Z,16
2022-08-16T10:04:01.495Z,16
2022-08-16T10:32:51.092Z,14
2022-08-16T11:30:57.737Z,13
2022-08-16T12:00:07.383Z,10
2022-08-16T12:29:05.751Z,13
2022-08-16T12:58:47.767Z,13
2022-08-16T13:27:01.256Z,13
2022-08-16T13:56:10.673Z,12
2022-08-16T14:24:59.411Z,12
2022-08-16T14:54:30.964Z,7
2022-08-16T15:23:45.402Z,10
2022-08-16T15:52:46.153Z,10
2022-08-16T16:22:00.617Z,14
2022-08-16T16:51:17.567Z,13
2022-08-16T17:20:35.793Z,10
2022-08-16T17:49:35.601Z,13
2022-08-16T18:18:32.823Z,15
2022-08-16T18:47:48.694Z,13
2022-08-16T19:16:27.083Z,16
2022-08-16T19:45:53.191Z,16
2022-08-16T20:15:26.767Z,19
2022-08-16T20:44:10.121Z,17
2022-08-16T21:13:18.286Z,17
2022-08-16T21:42:40.644Z,19
2022-08-16T22:11:59.743Z,18
2022-08-16T22:41:22.112Z,17
2022-08-16T23:10:15.331Z,17
2022-08-16T23:39:38.943Z,22
